createdAt,value
2019-01-20T00:00:47.730Z,30.43
2019-01-20T00:03:16.850Z,30.07
2019-01-20T00:05:45.531Z,28.33
2019-01-20T00:08:14.389Z,30.47
2019-01-20T00:10:43.376Z,29.60
2019-01-20T00:13:12.202Z,28.97
2019-01-20T00:15:41.660Z,27.53
2019-01-20T00:18:10.483Z,25.60
2019-01-20T00:20:39.672Z,27.57
2019-01-20T00:23:08.375Z,24.27
2019-01-20T00:25:37.162Z,25.03
2019-01-20T00:28:06.052Z,24.43
2019-01-20T00:30:34.858Z,24.13
2019-01-20T00:33:04.416Z,23.90
2019-01-20T00:35:33.215Z,23.23
2019-01-20T00:38:01.955Z,22.50
2019-01-20T00:40:31.026Z,24.77
2019-01-20T00:42:59.810Z,23.27
2019-01-20T00:45:28.632Z,24.30
2019-01-20T00:47:57.465Z,25.13
2019-01-20T00:50:26.651Z,25.60
2019-01-20T00:52:55.303Z,24.37
2019-01-20T00:55:23.982Z,23.60
2019-01-20T00:57:52.827Z,26.97
2019-01-20T01:00:26.085Z,24.90
2019-01-20T01:02:54.770Z,25.27
2019-01-20T01:05:23.758Z,24.67
2019-01-20T01:07:52.587Z,23.50
2019-01-20T01:10:21.564Z,24.80
2019-01-20T01:12:51.315Z,23.07
2019-01-20T01:15:20.207Z,22.93
2019-01-20T01:17:49.506Z,23.67
2019-01-20T01:20:18.519Z,23.77
2019-01-20T01:22:47.414Z,23.60
2019-01-20T01:25:16.976Z,25.40
2019-01-20T01:27:46.535Z,23.90
2019-01-20T01:30:16.827Z,25.27
2019-01-20T01:32:45.505Z,22.57
2019-01-20T01:35:14.642Z,24.80
2019-01-20T01:37:43.906Z,22.13
2019-01-20T01:40:13.108Z,22.17
2019-01-20T01:42:42.361Z,22.30
2019-01-20T01:45:12.555Z,22.87
2019-01-20T01:47:41.309Z,20.57
2019-01-20T01:50:10.608Z,21.57
2019-01-20T01:52:39.666Z,20.63
2019-01-20T01:55:08.959Z,21.47
2019-01-20T01:57:37.752Z,21.10
2019-01-20T02:00:08.610Z,20.37
2019-01-20T02:02:37.656Z,20.50
2019-01-20T02:05:06.850Z,19.47
2019-01-20T02:07:35.638Z,21.10
2019-01-20T02:10:05.005Z,20.40
2019-01-20T02:12:33.699Z,20.43
2019-01-20T02:15:02.604Z,20.17
2019-01-20T02:17:31.354Z,20.57
2019-01-20T02:20:00.376Z,20.57
2019-01-20T02:22:29.022Z,20.83
2019-01-20T02:24:57.652Z,19.90
2019-01-20T02:27:26.287Z,19.20
2019-01-20T02:29:55.311Z,19.97
2019-01-20T02:32:23.968Z,20.67
2019-01-20T02:34:52.600Z,20.43
2019-01-20T02:37:21.800Z,20.90
2019-01-20T02:39:50.838Z,21.40
2019-01-20T02:42:19.766Z,20.37
2019-01-20T02:44:48.520Z,21.33
2019-01-20T02:47:17.153Z,19.90
2019-01-20T02:49:45.798Z,20.23
2019-01-20T02:52:14.803Z,19.93
2019-01-20T02:54:43.468Z,19.60
2019-01-20T02:57:12.475Z,20.23
2019-01-20T02:59:41.123Z,18.47
2019-01-20T03:02:09.059Z,19.77
2019-01-20T03:04:38.090Z,20.20
2019-01-20T03:07:07.410Z,19.03
2019-01-20T03:09:36.448Z,18.13
2019-01-20T03:12:05.096Z,18.20
2019-01-20T03:14:33.730Z,19.00
2019-01-20T03:17:02.647Z,20.07
2019-01-20T03:19:31.990Z,19.67
2019-01-20T03:22:01.002Z,19.50
2019-01-20T03:24:30.033Z,19.87
2019-01-20T03:26:59.061Z,20.03
2019-01-20T03:29:28.092Z,18.80
2019-01-20T03:31:56.742Z,19.50
2019-01-20T03:34:25.658Z,20.57
2019-01-20T03:36:54.409Z,22.30
2019-01-20T03:39:23.050Z,20.70
2019-01-20T03:41:51.881Z,21.30
2019-01-20T03:44:20.514Z,20.27
2019-01-20T03:46:49.331Z,20.77
2019-01-20T03:49:18.269Z,22.23
2019-01-20T03:51:47.582Z,20.63
2019-01-20T03:54:16.250Z,20.13
2019-01-20T03:56:45.230Z,19.63
2019-01-20T03:59:13.916Z,20.63
2019-01-20T04:01:42.543Z,19.00
2019-01-20T04:04:11.475Z,18.57
2019-01-20T04:06:40.207Z,17.63
2019-01-20T04:09:09.417Z,18.17
2019-01-20T04:11:38.078Z,17.23
2019-01-20T04:14:06.733Z,17.63
2019-01-20T04:16:35.551Z,16.97
2019-01-20T04:19:04.558Z,17.30
2019-01-20T04:21:33.208Z,16.70
2019-01-20T04:24:02.225Z,17.00
2019-01-20T04:26:30.891Z,16.87
2019-01-20T04:28:59.865Z,16.37
2019-01-20T04:31:28.919Z,15.80
2019-01-20T04:33:57.947Z,16.20
2019-01-20T04:36:26.598Z,16.40
2019-01-20T04:38:55.927Z,15.77
2019-01-20T04:41:24.744Z,17.33
2019-01-20T04:43:54.182Z,17.30
2019-01-20T04:46:23.578Z,17.87
2019-01-20T04:48:52.719Z,16.87
2019-01-20T04:51:22.044Z,19.00
2019-01-20T04:53:52.111Z,17.13
2019-01-20T04:56:21.340Z,17.43
2019-01-20T04:58:50.073Z,17.10
2019-01-20T05:01:19.927Z,17.87
2019-01-20T05:03:48.870Z,18.33
2019-01-20T05:06:17.805Z,18.37
2019-01-20T05:08:46.555Z,17.97
2019-01-20T05:11:15.183Z,17.03
2019-01-20T05:13:44.326Z,18.87
2019-01-20T05:16:13.422Z,17.37
2019-01-20T05:18:42.692Z,18.47
2019-01-20T05:21:11.307Z,18.23
2019-01-20T05:23:39.947Z,17.67
2019-01-20T05:26:09.142Z,17.30
2019-01-20T05:28:37.810Z,17.87
2019-01-20T05:31:06.439Z,17.47
2019-01-20T05:33:35.454Z,17.77
2019-01-20T05:36:04.611Z,17.60
2019-01-20T05:38:33.334Z,18.73
2019-01-20T05:41:02.532Z,17.27
2019-01-20T05:43:31.670Z,17.80
2019-01-20T05:46:00.394Z,17.43
2019-01-20T05:48:29.329Z,19.97
2019-01-20T05:50:58.087Z,21.13
2019-01-20T05:53:26.718Z,21.13
2019-01-20T05:55:55.735Z,21.23
2019-01-20T05:58:24.399Z,23.87
2019-01-20T06:00:53.024Z,23.33
2019-01-20T06:03:21.939Z,25.97
2019-01-20T06:05:51.062Z,24.07
2019-01-20T06:08:20.295Z,24.67
2019-01-20T06:10:49.519Z,24.70
2019-01-20T06:13:18.696Z,24.23
2019-01-20T06:15:47.489Z,23.83
2019-01-20T06:18:16.805Z,24.83
2019-01-20T06:20:45.484Z,26.40
2019-01-20T06:23:14.679Z,26.67
2019-01-20T06:25:43.559Z,24.20
2019-01-20T06:28:12.739Z,26.83
2019-01-20T06:30:41.422Z,24.20
2019-01-20T06:33:10.787Z,26.90
2019-01-20T06:35:39.847Z,25.93
2019-01-20T06:38:08.999Z,25.00
2019-01-20T06:40:37.974Z,25.93
2019-01-20T06:43:06.770Z,25.50
2019-01-20T06:45:36.324Z,25.40
2019-01-20T06:48:05.484Z,23.43
2019-01-20T06:50:34.690Z,22.57
2019-01-20T06:53:03.816Z,20.10
2019-01-20T06:55:32.521Z,21.13
2019-01-20T06:58:01.685Z,20.70
2019-01-20T07:00:30.711Z,18.53
2019-01-20T07:02:59.396Z,19.03
2019-01-20T07:05:28.249Z,18.30
2019-01-20T07:07:57.400Z,18.60
2019-01-20T07:10:26.130Z,18.73
2019-01-20T07:12:54.887Z,19.93
2019-01-20T07:15:25.036Z,18.77
2019-01-20T07:17:54.317Z,19.47
2019-01-20T07:20:23.005Z,17.77
2019-01-20T07:22:52.359Z,19.00
2019-01-20T07:25:21.708Z,20.07
2019-01-20T07:27:50.851Z,19.77
2019-01-20T07:30:23.658Z,18.03
2019-01-20T07:32:52.491Z,18.77
2019-01-20T07:35:21.629Z,17.50
2019-01-20T07:37:50.396Z,19.30
2019-01-20T07:40:20.208Z,18.23
2019-01-20T07:42:49.333Z,18.07
2019-01-20T07:45:18.317Z,19.50
2019-01-20T07:47:47.077Z,18.60
2019-01-20T07:50:17.179Z,18.53
2019-01-20T07:52:46.231Z,18.37
2019-01-20T07:55:15.355Z,18.70
2019-01-20T07:57:44.104Z,20.67
2019-01-20T08:00:14.001Z,18.50
2019-01-20T08:02:42.751Z,20.20
2019-01-20T08:05:11.691Z,17.33
2019-01-20T08:07:40.442Z,19.47
2019-01-20T08:10:11.303Z,19.37
2019-01-20T08:12:40.055Z,19.73
2019-01-20T08:15:09.869Z,20.03
2019-01-20T08:17:39.274Z,20.70
2019-01-20T08:20:09.667Z,19.33
2019-01-20T08:22:38.716Z,18.73
2019-01-20T08:25:07.644Z,20.23
2019-01-20T08:27:36.977Z,18.97
2019-01-20T08:30:06.289Z,20.17
2019-01-20T08:32:35.861Z,19.03
2019-01-20T08:35:04.927Z,20.87
2019-01-20T08:37:34.379Z,19.57
2019-01-20T08:40:03.335Z,19.73
2019-01-20T08:42:32.330Z,22.00
2019-01-20T08:45:00.980Z,19.67
2019-01-20T08:47:33.744Z,20.33
2019-01-20T08:50:02.604Z,19.07
2019-01-20T08:52:31.790Z,19.57
2019-01-20T08:55:02.619Z,21.00
2019-01-20T08:57:31.243Z,20.57
2019-01-20T09:00:00.444Z,21.10
2019-01-20T09:02:29.483Z,23.47
2019-01-20T09:04:58.511Z,22.07
2019-01-20T09:07:27.548Z,21.90
2019-01-20T09:09:56.509Z,21.43
2019-01-20T09:12:25.457Z,22.63
2019-01-20T09:14:54.100Z,22.20
2019-01-20T09:17:23.269Z,21.97
2019-01-20T09:19:52.289Z,22.10
2019-01-20T09:22:21.226Z,22.27
2019-01-20T09:24:49.995Z,21.50
2019-01-20T09:27:18.827Z,22.33
2019-01-20T09:29:47.826Z,21.23
2019-01-20T09:32:16.485Z,22.30
2019-01-20T09:34:45.497Z,20.23
2019-01-20T09:37:14.712Z,19.83
2019-01-20T09:39:43.939Z,20.90
2019-01-20T09:42:12.610Z,21.47
2019-01-20T09:44:41.459Z,19.37
2019-01-20T09:47:10.282Z,19.40
2019-01-20T09:49:39.108Z,17.37
2019-01-20T09:52:08.216Z,20.13
2019-01-20T09:54:37.392Z,19.23
2019-01-20T09:57:06.217Z,18.27
2019-01-20T09:59:35.589Z,17.93
2019-01-20T10:02:04.979Z,17.87
2019-01-20T10:04:34.234Z,17.60
2019-01-20T10:07:03.156Z,19.13
2019-01-20T10:09:31.990Z,18.63
2019-01-20T10:12:00.933Z,17.47
2019-01-20T10:14:30.013Z,18.73
2019-01-20T10:16:58.870Z,18.93
2019-01-20T10:19:28.222Z,19.83
2019-01-20T10:21:57.255Z,20.43
2019-01-20T10:24:26.152Z,19.80
2019-01-20T10:26:54.987Z,18.43
2019-01-20T10:29:23.859Z,18.47
2019-01-20T10:31:52.627Z,19.00
2019-01-20T10:34:22.593Z,16.70
2019-01-20T10:36:51.483Z,17.20
2019-01-20T10:39:20.462Z,18.10
2019-01-20T10:41:49.495Z,18.43
2019-01-20T10:44:18.156Z,18.87
2019-01-20T10:46:46.988Z,18.27
2019-01-20T10:49:16.019Z,17.47
2019-01-20T10:51:45.423Z,17.97
2019-01-20T10:54:14.652Z,17.83
2019-01-20T10:56:43.415Z,17.93
2019-01-20T10:59:12.422Z,16.30
2019-01-20T11:01:41.373Z,22.07
2019-01-20T11:04:10.231Z,17.20
2019-01-20T11:06:39.210Z,17.70
2019-01-20T11:09:08.374Z,16.63
2019-01-20T11:11:37.658Z,15.83
2019-01-20T11:14:09.611Z,15.77
2019-01-20T11:16:37.495Z,16.23
2019-01-20T11:19:06.516Z,17.03
2019-01-20T11:21:35.477Z,16.67
2019-01-20T11:24:04.683Z,16.70
2019-01-20T11:26:33.857Z,16.80
2019-01-20T11:29:03.334Z,16.73
2019-01-20T11:31:32.759Z,16.60
2019-01-20T11:34:01.559Z,17.07
2019-01-20T11:36:30.342Z,16.13
2019-01-20T11:38:59.727Z,16.33
2019-01-20T11:41:28.610Z,14.90
2019-01-20T11:43:57.731Z,15.17
2019-01-20T11:46:26.939Z,14.93
2019-01-20T11:48:55.898Z,14.53
2019-01-20T11:51:25.265Z,14.53
2019-01-20T11:53:54.519Z,12.87
2019-01-20T11:56:23.828Z,13.90
2019-01-20T11:58:52.968Z,14.53
2019-01-20T12:01:21.881Z,12.97
2019-01-20T12:03:50.692Z,14.17
2019-01-20T12:06:19.706Z,14.47
2019-01-20T12:08:48.694Z,13.00
2019-01-20T12:11:17.908Z,14.00
2019-01-20T12:13:46.874Z,13.83
2019-01-20T12:16:15.980Z,14.07
2019-01-20T12:18:45.297Z,12.97
2019-01-20T12:21:14.739Z,13.90
2019-01-20T12:23:43.548Z,12.30
2019-01-20T12:26:12.543Z,13.60
2019-01-20T12:28:41.897Z,12.70
2019-01-20T12:31:10.733Z,12.67
2019-01-20T12:33:39.794Z,11.47
2019-01-20T12:36:08.707Z,12.90
2019-01-20T12:38:37.614Z,12.37
2019-01-20T12:41:06.371Z,11.57
2019-01-20T12:43:35.599Z,12.20
2019-01-20T12:46:04.750Z,12.40
2019-01-20T12:48:33.579Z,13.03
2019-01-20T12:51:02.719Z,13.70
2019-01-20T12:53:31.517Z,13.57
2019-01-20T12:56:00.415Z,13.37
2019-01-20T12:58:29.861Z,12.77
2019-01-20T13:00:58.919Z,12.67
2019-01-20T13:03:28.314Z,13.37
2019-01-20T13:05:57.290Z,12.20
2019-01-20T13:08:26.666Z,12.73
2019-01-20T13:10:55.469Z,12.20
2019-01-20T13:13:24.261Z,12.43
2019-01-20T13:15:52.900Z,12.33
2019-01-20T13:18:21.906Z,12.30
2019-01-20T13:20:51.911Z,12.37
2019-01-20T13:23:20.750Z,12.07
2019-01-20T13:25:49.414Z,11.53
2019-01-20T13:28:18.228Z,11.93
2019-01-20T13:30:47.157Z,12.50
2019-01-20T13:33:15.918Z,11.37
2019-01-20T13:35:44.755Z,11.40
2019-01-20T13:38:15.278Z,11.10
2019-01-20T13:40:45.496Z,11.77
2019-01-20T13:43:14.681Z,10.47
2019-01-20T13:45:43.790Z,10.57
2019-01-20T13:48:12.824Z,11.13
2019-01-20T13:50:41.760Z,10.90
2019-01-20T13:53:11.070Z,11.37
2019-01-20T13:55:40.115Z,11.10
2019-01-20T13:58:09.231Z,11.33
2019-01-20T14:00:38.011Z,11.20
2019-01-20T14:03:06.830Z,12.40
2019-01-20T14:05:36.022Z,11.40
2019-01-20T14:08:05.057Z,13.93
2019-01-20T14:10:34.277Z,12.50
2019-01-20T14:13:02.942Z,12.53
2019-01-20T14:15:31.962Z,11.80
2019-01-20T14:18:01.179Z,13.70
2019-01-20T14:20:29.834Z,13.20
2019-01-20T14:22:58.742Z,12.73
2019-01-20T14:25:27.478Z,14.30
2019-01-20T14:27:56.700Z,14.10
2019-01-20T14:30:29.542Z,14.43
2019-01-20T14:32:58.341Z,15.60
2019-01-20T14:35:27.442Z,16.30
2019-01-20T14:37:56.759Z,15.43
2019-01-20T14:40:26.181Z,15.00
2019-01-20T14:42:55.217Z,14.83
2019-01-20T14:45:24.171Z,14.60
2019-01-20T14:47:53.270Z,15.03
2019-01-20T14:50:23.351Z,14.03
2019-01-20T14:52:52.420Z,14.00
2019-01-20T14:55:21.474Z,13.97
2019-01-20T14:57:50.277Z,14.93
2019-01-20T15:00:23.402Z,13.93
2019-01-20T15:02:52.207Z,13.90
2019-01-20T15:05:21.394Z,14.00
2019-01-20T15:07:50.055Z,14.37
2019-01-20T15:10:19.695Z,15.60
2019-01-20T15:12:48.311Z,15.07
2019-01-20T15:15:19.974Z,13.73
2019-01-20T15:17:48.743Z,15.00
2019-01-20T15:20:17.872Z,13.50
2019-01-20T15:22:46.880Z,13.80
2019-01-20T15:25:16.288Z,17.13
2019-01-20T15:27:45.046Z,13.70
2019-01-20T15:30:23.885Z,14.43
2019-01-20T15:32:52.541Z,14.10
2019-01-20T15:35:22.161Z,13.10
2019-01-20T15:37:51.232Z,14.50
2019-01-20T15:40:20.133Z,14.77
2019-01-20T15:42:48.895Z,14.53
2019-01-20T15:45:18.131Z,14.57
2019-01-20T15:47:53.867Z,14.60
2019-01-20T15:50:23.394Z,13.27
2019-01-20T15:52:52.046Z,14.70
2019-01-20T15:55:21.250Z,13.43
2019-01-20T15:57:49.943Z,14.80
2019-01-20T16:00:19.786Z,14.73
2019-01-20T16:02:48.554Z,16.13
2019-01-20T16:05:17.862Z,14.70
2019-01-20T16:07:47.187Z,14.67
2019-01-20T16:10:16.633Z,15.97
2019-01-20T16:12:45.479Z,14.77
2019-01-20T16:15:24.327Z,16.97
2019-01-20T16:17:49.566Z,15.53
2019-01-20T16:20:18.319Z,14.97
2019-01-20T16:22:46.941Z,14.13
2019-01-20T16:25:16.770Z,15.30
2019-01-20T16:27:45.328Z,15.30
2019-01-20T16:30:15.343Z,14.70
2019-01-20T16:32:44.871Z,15.33
2019-01-20T16:35:25.726Z,14.50
2019-01-20T16:37:54.192Z,16.10
2019-01-20T16:40:23.848Z,15.93
2019-01-20T16:42:52.976Z,17.90
2019-01-20T16:45:22.998Z,20.30
2019-01-20T16:47:51.752Z,20.43
2019-01-20T16:50:21.166Z,21.73
2019-01-20T16:52:54.498Z,20.27
2019-01-20T16:55:19.778Z,21.27
2019-01-20T16:57:48.266Z,21.53
2019-01-20T17:00:21.451Z,20.93
2019-01-20T17:02:49.964Z,23.57
2019-01-20T17:05:18.787Z,21.90
2019-01-20T17:07:47.411Z,21.10
2019-01-20T17:10:17.303Z,21.87
2019-01-20T17:12:45.811Z,21.93
2019-01-20T17:15:16.045Z,21.53
2019-01-20T17:17:44.372Z,20.67
2019-01-20T17:20:12.859Z,20.70
2019-01-20T17:22:45.456Z,22.73
2019-01-20T17:25:14.266Z,21.30
2019-01-20T17:27:42.698Z,21.83
2019-01-20T17:30:12.882Z,22.30
2019-01-20T17:32:41.322Z,20.50
2019-01-20T17:35:10.278Z,20.83
2019-01-20T17:37:38.749Z,21.43
2019-01-20T17:40:08.299Z,23.03
2019-01-20T17:42:36.751Z,21.43
2019-01-20T17:45:05.562Z,20.57
2019-01-20T17:47:33.987Z,21.93
2019-01-20T17:50:02.325Z,20.10
2019-01-20T17:52:30.787Z,21.37
2019-01-20T17:54:59.235Z,22.53
2019-01-20T17:57:27.767Z,22.20
2019-01-20T17:59:56.167Z,23.20
2019-01-20T18:02:29.852Z,24.07
2019-01-20T18:04:58.189Z,22.67
2019-01-20T18:07:26.491Z,24.17
2019-01-20T18:09:54.921Z,24.73
2019-01-20T18:12:23.248Z,24.43
2019-01-20T18:14:51.626Z,22.50
2019-01-20T18:17:19.958Z,22.07
2019-01-20T18:19:48.278Z,23.77
2019-01-20T18:22:16.748Z,23.10
2019-01-20T18:24:45.138Z,21.97
2019-01-20T18:27:13.480Z,23.63
2019-01-20T18:29:41.908Z,21.03
2019-01-20T18:32:10.383Z,20.93
2019-01-20T18:34:38.734Z,21.63
2019-01-20T18:37:07.092Z,20.53
2019-01-20T18:39:35.534Z,21.33
2019-01-20T18:42:03.911Z,22.03
2019-01-20T18:44:32.343Z,20.60
2019-01-20T18:47:00.728Z,21.07
2019-01-20T18:49:29.418Z,22.30
2019-01-20T18:51:58.066Z,23.40
2019-01-20T18:54:26.647Z,23.60
2019-01-20T18:56:55.463Z,22.57
2019-01-20T18:59:24.461Z,21.83
2019-01-20T19:01:52.836Z,21.67
2019-01-20T19:04:21.678Z,24.53
2019-01-20T19:06:50.883Z,24.33
2019-01-20T19:09:19.586Z,23.20
2019-01-20T19:11:48.959Z,24.13
2019-01-20T19:14:18.004Z,24.33
2019-01-20T19:16:47.019Z,24.60
2019-01-20T19:19:16.867Z,24.57
2019-01-20T19:21:46.063Z,24.70
2019-01-20T19:24:15.147Z,23.87
2019-01-20T19:26:45.303Z,22.87
2019-01-20T19:29:14.259Z,23.67
2019-01-20T19:31:43.522Z,23.67
2019-01-20T19:34:13.877Z,23.83
2019-01-20T19:36:42.705Z,22.83
2019-01-20T19:39:11.508Z,23.43
2019-01-20T19:41:40.566Z,23.40
2019-01-20T19:44:09.812Z,24.53
2019-01-20T19:46:38.919Z,24.20
2019-01-20T19:49:08.062Z,22.40
2019-01-20T19:51:37.088Z,22.90
2019-01-20T19:54:06.392Z,25.47
2019-01-20T19:56:35.073Z,22.93
2019-01-20T19:59:03.913Z,22.53
2019-01-20T20:01:33.131Z,23.07
2019-01-20T20:04:02.131Z,20.37
2019-01-20T20:06:31.781Z,21.30
2019-01-20T20:09:01.160Z,21.43
2019-01-20T20:11:29.846Z,22.53
2019-01-20T20:13:58.735Z,21.30
2019-01-20T20:16:27.504Z,19.90
2019-01-20T20:18:56.354Z,19.40
2019-01-20T20:21:25.157Z,21.10
2019-01-20T20:23:54.006Z,19.83
2019-01-20T20:26:22.404Z,20.63
2019-01-20T20:28:51.080Z,18.57
2019-01-20T20:31:19.933Z,18.73
2019-01-20T20:33:48.735Z,18.77
2019-01-20T20:36:18.521Z,18.77
2019-01-20T20:38:47.941Z,18.50
2019-01-20T20:41:16.657Z,20.47
2019-01-20T20:43:45.609Z,19.07
2019-01-20T20:46:14.669Z,20.33
2019-01-20T20:48:43.518Z,20.50
2019-01-20T20:51:12.702Z,19.50
2019-01-20T20:53:41.923Z,19.70
2019-01-20T20:56:10.595Z,19.13
2019-01-20T20:58:39.425Z,20.77
2019-01-20T21:01:08.340Z,20.33
2019-01-20T21:03:37.846Z,19.87
2019-01-20T21:06:06.285Z,20.63
2019-01-20T21:08:34.631Z,19.77
2019-01-20T21:11:04.061Z,19.00
2019-01-20T21:13:32.834Z,19.63
2019-01-20T21:16:01.647Z,19.80
2019-01-20T21:18:30.477Z,19.63
2019-01-20T21:20:59.320Z,18.20
2019-01-20T21:23:28.150Z,18.10
2019-01-20T21:25:57.345Z,18.20
2019-01-20T21:28:26.029Z,17.60
2019-01-20T21:30:54.843Z,17.93
2019-01-20T21:33:23.477Z,17.30
2019-01-20T21:35:52.676Z,16.37
2019-01-20T21:38:21.359Z,18.10
2019-01-20T21:40:50.446Z,17.13
2019-01-20T21:43:19.359Z,16.97
2019-01-20T21:45:48.050Z,17.70
2019-01-20T21:48:16.873Z,17.70
2019-01-20T21:50:45.695Z,16.43
2019-01-20T21:53:14.534Z,16.90
2019-01-20T21:55:43.447Z,16.17
2019-01-20T21:58:11.996Z,16.87
2019-01-20T22:00:41.020Z,17.13
2019-01-20T22:03:09.682Z,16.93
2019-01-20T22:05:38.026Z,17.53
2019-01-20T22:08:06.366Z,17.17
2019-01-20T22:10:34.750Z,17.10
2019-01-20T22:13:03.416Z,17.67
2019-01-20T22:15:32.318Z,17.43
2019-01-20T22:18:01.107Z,19.73
2019-01-20T22:20:29.934Z,19.53
2019-01-20T22:22:59.329Z,21.80
2019-01-20T22:25:28.276Z,20.73
2019-01-20T22:27:57.297Z,23.07
2019-01-20T22:30:27.399Z,21.47
2019-01-20T22:32:56.731Z,22.53
2019-01-20T22:35:25.866Z,23.03
2019-01-20T22:37:54.883Z,23.17
2019-01-20T22:40:23.722Z,21.07
2019-01-20T22:42:52.388Z,21.67
2019-01-20T22:45:24.595Z,22.73
2019-01-20T22:47:53.662Z,23.77
2019-01-20T22:50:22.088Z,23.27
2019-01-20T22:52:50.480Z,22.47
2019-01-20T22:55:18.833Z,22.40
2019-01-20T22:57:47.671Z,23.17
2019-01-20T23:00:24.729Z,22.17
2019-01-20T23:02:53.151Z,20.77
2019-01-20T23:05:21.503Z,19.73
2019-01-20T23:07:49.842Z,20.20
2019-01-20T23:10:18.187Z,20.10
2019-01-20T23:12:47.200Z,20.20
2019-01-20T23:15:15.883Z,20.63
2019-01-20T23:17:44.693Z,19.73
2019-01-20T23:20:14.223Z,19.63
2019-01-20T23:22:42.958Z,19.83
2019-01-20T23:25:11.959Z,19.23
2019-01-20T23:27:40.961Z,18.97
2019-01-20T23:30:10.378Z,18.83
2019-01-20T23:32:38.714Z,17.53
2019-01-20T23:35:07.159Z,16.03
2019-01-20T23:37:35.611Z,13.30
2019-01-20T23:40:04.666Z,14.20
2019-01-20T23:42:33.021Z,15.53
2019-01-20T23:45:01.366Z,18.33
2019-01-20T23:47:29.991Z,19.80
2019-01-20T23:49:58.322Z,20.77
2019-01-20T23:52:26.702Z,20.87
2019-01-20T23:54:55.023Z,22.00
2019-01-20T23:57:23.456Z,21.43
2019-01-20T23:59:51.887Z,21.17
